createdAt,value
2018-11-13T00:01:04.136Z,75.52
2018-11-13T00:03:31.560Z,75.46
2018-11-13T00:05:58.985Z,75.63
2018-11-13T00:08:26.396Z,75.88
2018-11-13T00:10:53.814Z,75.57
2018-11-13T00:13:21.232Z,75.54
2018-11-13T00:15:48.668Z,75.88
2018-11-13T00:18:16.085Z,75.83
2018-11-13T00:20:43.894Z,75.92
2018-11-13T00:23:11.278Z,75.66
2018-11-13T00:25:38.693Z,75.87
2018-11-13T00:28:06.129Z,76.41
2018-11-13T00:30:33.525Z,75.96
2018-11-13T00:33:00.969Z,76.49
2018-11-13T00:35:28.384Z,76.31
2018-11-13T00:37:56.228Z,76.67
2018-11-13T00:40:23.638Z,76.96
2018-11-13T00:42:51.104Z,76.72
2018-11-13T00:45:18.618Z,76.81
2018-11-13T00:47:46.044Z,76.98
2018-11-13T00:50:14.395Z,76.87
2018-11-13T00:52:42.587Z,77.07
2018-11-13T00:55:10.013Z,77.16
2018-11-13T00:57:37.448Z,77.20
2018-11-13T01:00:04.969Z,77.09
2018-11-13T01:02:32.341Z,77.40
2018-11-13T01:04:59.814Z,77.60
2018-11-13T01:07:27.177Z,77.15
2018-11-13T01:09:54.581Z,77.34
2018-11-13T01:12:22.006Z,77.09
2018-11-13T01:14:49.464Z,77.29
2018-11-13T01:17:17.486Z,77.46
2018-11-13T01:19:44.941Z,77.36
2018-11-13T01:22:12.456Z,77.46
2018-11-13T01:24:39.881Z,77.73
2018-11-13T01:27:07.305Z,77.54
2018-11-13T01:29:35.136Z,77.84
2018-11-13T01:32:02.645Z,77.64
2018-11-13T01:34:30.094Z,77.99
2018-11-13T01:36:57.584Z,77.67
2018-11-13T01:39:25.069Z,77.47
2018-11-13T01:41:52.486Z,77.90
2018-11-13T01:44:19.898Z,77.52
2018-11-13T01:46:47.312Z,77.81
2018-11-13T01:49:14.908Z,77.69
2018-11-13T01:51:42.320Z,77.89
2018-11-13T01:54:09.747Z,77.54
2018-11-13T01:56:37.168Z,78.16
2018-11-13T01:59:04.576Z,78.15
2018-11-13T02:01:31.984Z,77.56
2018-11-13T02:03:59.405Z,78.03
2018-11-13T02:06:26.816Z,78.07
2018-11-13T02:08:54.229Z,78.14
2018-11-13T02:11:21.641Z,78.25
2018-11-13T02:13:49.181Z,78.14
2018-11-13T02:16:16.590Z,78.07
2018-11-13T02:18:44.008Z,78.25
2018-11-13T02:21:11.416Z,78.20
2018-11-13T02:23:38.884Z,78.31
2018-11-13T02:26:06.312Z,78.12
2018-11-13T02:28:33.741Z,77.94
2018-11-13T02:31:01.757Z,78.05
2018-11-13T02:33:29.182Z,77.62
2018-11-13T02:35:56.580Z,78.11
2018-11-13T02:38:24.002Z,77.69
2018-11-13T02:40:51.408Z,77.96
2018-11-13T02:43:18.837Z,78.17
2018-11-13T02:45:46.249Z,77.95
2018-11-13T02:48:13.678Z,78.28
2018-11-13T02:50:41.119Z,78.26
2018-11-13T02:53:08.540Z,78.16
2018-11-13T02:55:35.948Z,78.07
2018-11-13T02:58:03.358Z,78.04
2018-11-13T03:00:30.766Z,77.92
2018-11-13T03:02:58.212Z,78.04
2018-11-13T03:05:25.799Z,77.93
2018-11-13T03:07:53.208Z,77.87
2018-11-13T03:10:21.097Z,77.87
2018-11-13T03:12:48.631Z,77.82
2018-11-13T03:15:17.236Z,77.89
2018-11-13T03:17:44.657Z,77.78
2018-11-13T03:20:13.269Z,77.36
2018-11-13T03:22:41.129Z,77.19
2018-11-13T03:25:08.565Z,77.12
2018-11-13T03:27:36.171Z,76.94
2018-11-13T03:30:03.580Z,77.25
2018-11-13T03:32:30.997Z,77.09
2018-11-13T03:34:58.404Z,76.98
2018-11-13T03:37:25.818Z,77.08
2018-11-13T03:39:53.233Z,76.72
2018-11-13T03:42:20.631Z,76.92
2018-11-13T03:44:48.061Z,76.88
2018-11-13T03:47:15.529Z,76.90
2018-11-13T03:49:42.939Z,76.79
2018-11-13T03:52:10.457Z,76.86
2018-11-13T03:54:37.865Z,76.67
2018-11-13T03:57:05.277Z,76.71
2018-11-13T03:59:32.728Z,76.59
2018-11-13T04:02:00.136Z,76.46
2018-11-13T04:04:27.628Z,76.65
2018-11-13T04:06:55.032Z,76.76
2018-11-13T04:09:22.448Z,76.70
2018-11-13T04:11:49.857Z,76.83
2018-11-13T04:14:17.257Z,77.04
2018-11-13T04:16:44.648Z,76.91
2018-11-13T04:19:12.057Z,76.98
2018-11-13T04:21:39.456Z,77.10
2018-11-13T04:24:07.079Z,76.81
2018-11-13T04:26:34.488Z,77.03
2018-11-13T04:29:01.900Z,77.16
2018-11-13T04:31:29.351Z,77.24
2018-11-13T04:33:57.016Z,77.51
2018-11-13T04:36:24.648Z,77.34
2018-11-13T04:38:52.241Z,77.27
2018-11-13T04:41:19.946Z,77.49
2018-11-13T04:43:47.441Z,77.44
2018-11-13T04:46:14.844Z,77.47
2018-11-13T04:48:42.457Z,77.58
2018-11-13T04:51:09.941Z,77.52
2018-11-13T04:53:37.354Z,77.86
2018-11-13T04:56:04.744Z,77.29
2018-11-13T04:58:32.173Z,77.68
2018-11-13T05:00:59.589Z,77.34
2018-11-13T05:03:26.996Z,77.30
2018-11-13T05:05:54.414Z,77.52
2018-11-13T05:08:21.834Z,77.33
2018-11-13T05:10:49.320Z,77.16
2018-11-13T05:13:16.759Z,77.42
2018-11-13T05:15:44.206Z,77.51
2018-11-13T05:18:11.610Z,77.17
2018-11-13T05:20:39.084Z,77.02
2018-11-13T05:23:06.520Z,77.31
2018-11-13T05:25:33.908Z,77.30
2018-11-13T05:28:01.308Z,77.17
2018-11-13T05:30:28.724Z,77.34
2018-11-13T05:32:56.129Z,77.42
2018-11-13T05:35:23.548Z,77.23
2018-11-13T05:37:50.996Z,76.77
2018-11-13T05:40:19.807Z,76.80
2018-11-13T05:42:47.372Z,76.79
2018-11-13T05:45:16.153Z,76.70
2018-11-13T05:47:50.189Z,76.25
2018-11-13T05:50:18.316Z,76.64
2018-11-13T05:52:46.934Z,76.90
2018-11-13T05:55:14.985Z,76.67
2018-11-13T05:57:42.396Z,76.06
2018-11-13T06:00:09.820Z,76.38
2018-11-13T06:02:37.477Z,76.34
2018-11-13T06:05:04.941Z,76.38
2018-11-13T06:07:32.352Z,76.03
2018-11-13T06:09:59.855Z,76.08
2018-11-13T06:12:27.287Z,76.28
2018-11-13T06:14:54.772Z,76.52
2018-11-13T06:17:22.229Z,76.61
2018-11-13T06:19:49.661Z,76.60
2018-11-13T06:22:17.213Z,76.71
2018-11-13T06:24:44.629Z,76.48
2018-11-13T06:27:12.126Z,76.45
2018-11-13T06:29:39.591Z,76.53
2018-11-13T06:32:07.319Z,76.44
2018-11-13T06:34:34.807Z,76.43
2018-11-13T06:37:02.575Z,76.41
2018-11-13T06:39:30.088Z,76.37
2018-11-13T06:41:57.508Z,76.16
2018-11-13T06:44:24.920Z,76.50
2018-11-13T06:46:52.361Z,76.20
2018-11-13T06:49:19.818Z,76.36
2018-11-13T06:51:47.184Z,76.64
2018-11-13T06:54:14.610Z,76.39
2018-11-13T06:56:42.038Z,76.36
2018-11-13T06:59:09.453Z,76.17
2018-11-13T07:01:36.881Z,76.37
2018-11-13T07:04:04.329Z,76.55
2018-11-13T07:06:31.864Z,76.39
2018-11-13T07:08:59.317Z,76.18
2018-11-13T07:11:26.892Z,76.06
2018-11-13T07:13:54.282Z,76.17
2018-11-13T07:16:21.714Z,75.86
2018-11-13T07:18:49.136Z,75.87
2018-11-13T07:21:16.597Z,76.38
2018-11-13T07:23:44.020Z,76.00
2018-11-13T07:26:11.556Z,75.96
2018-11-13T07:28:38.996Z,75.86
2018-11-13T07:31:06.455Z,75.84
2018-11-13T07:33:33.930Z,75.98
2018-11-13T07:36:01.307Z,75.61
2018-11-13T07:38:28.729Z,75.76
2018-11-13T07:40:56.184Z,75.48
2018-11-13T07:43:23.591Z,75.49
2018-11-13T07:45:51.143Z,75.70
2018-11-13T07:48:18.557Z,76.05
2018-11-13T07:50:46.022Z,76.02
2018-11-13T07:53:13.534Z,76.39
2018-11-13T07:55:40.961Z,77.08
2018-11-13T07:58:08.506Z,77.02
2018-11-13T08:00:35.929Z,76.58
2018-11-13T08:03:03.364Z,76.17
2018-11-13T08:05:30.805Z,75.96
2018-11-13T08:07:58.440Z,76.05
2018-11-13T08:10:25.869Z,75.49
2018-11-13T08:12:53.377Z,75.51
2018-11-13T08:15:20.702Z,76.23
2018-11-13T08:17:48.169Z,76.39
2018-11-13T08:20:16.199Z,76.30
2018-11-13T08:22:44.073Z,75.62
2018-11-13T08:25:11.759Z,76.25
2018-11-13T08:27:39.973Z,76.01
2018-11-13T08:30:07.373Z,75.76
2018-11-13T08:32:34.795Z,75.69
2018-11-13T08:35:02.258Z,75.58
2018-11-13T08:37:29.656Z,75.41
2018-11-13T08:39:57.088Z,75.47
2018-11-13T08:42:24.716Z,75.51
2018-11-13T08:44:52.349Z,76.17
2018-11-13T08:47:19.779Z,75.19
2018-11-13T08:49:47.204Z,75.23
2018-11-13T08:52:14.624Z,75.03
2018-11-13T08:54:42.076Z,74.56
2018-11-13T08:57:09.512Z,74.53
2018-11-13T08:59:36.999Z,75.02
2018-11-13T09:02:04.544Z,74.65
2018-11-13T09:04:31.978Z,75.26
2018-11-13T09:06:59.462Z,74.62
2018-11-13T09:09:26.873Z,75.09
2018-11-13T09:11:54.471Z,75.78
2018-11-13T09:14:21.987Z,75.54
2018-11-13T09:16:49.451Z,75.36
2018-11-13T09:19:17.035Z,75.71
2018-11-13T09:21:44.351Z,75.48
2018-11-13T09:24:11.741Z,75.36
2018-11-13T09:26:39.157Z,75.60
2018-11-13T09:29:06.685Z,76.33
2018-11-13T09:31:35.010Z,76.35
2018-11-13T09:34:02.417Z,76.38
2018-11-13T09:36:29.884Z,76.11
2018-11-13T09:38:57.308Z,76.07
2018-11-13T09:41:24.725Z,76.96
2018-11-13T09:43:52.245Z,76.56
2018-11-13T09:46:19.723Z,76.43
2018-11-13T09:48:47.121Z,76.71
2018-11-13T09:51:14.532Z,76.58
2018-11-13T09:53:42.041Z,76.93
2018-11-13T09:56:09.409Z,76.53
2018-11-13T09:58:36.824Z,76.99
2018-11-13T10:01:04.425Z,76.99
2018-11-13T10:03:32.100Z,77.50
2018-11-13T10:05:59.162Z,77.40
2018-11-13T10:08:26.508Z,78.49
2018-11-13T10:10:53.921Z,77.77
2018-11-13T10:13:21.332Z,78.72
2018-11-13T10:15:48.741Z,79.42
2018-11-13T10:18:16.401Z,79.23
2018-11-13T10:20:43.572Z,80.19
2018-11-13T10:23:10.989Z,80.44
2018-11-13T10:25:39.272Z,80.55
2018-11-13T10:28:06.700Z,80.10
2018-11-13T10:30:34.165Z,80.23
2018-11-13T10:33:01.580Z,80.28
2018-11-13T10:35:29.006Z,80.09
2018-11-13T10:37:56.425Z,80.87
2018-11-13T10:40:24.214Z,82.16
2018-11-13T10:42:52.044Z,81.63
2018-11-13T10:45:22.042Z,81.51
2018-11-13T10:47:49.540Z,81.87
2018-11-13T10:50:17.586Z,82.33
2018-11-13T10:52:45.055Z,82.70
2018-11-13T10:55:12.684Z,82.89
2018-11-13T10:57:40.859Z,83.43
2018-11-13T11:00:12.820Z,83.86
2018-11-13T11:03:44.440Z,83.87
2018-11-13T11:06:11.849Z,84.62
2018-11-13T11:08:39.276Z,84.60
2018-11-13T11:11:06.663Z,84.11
2018-11-13T11:13:34.238Z,84.06
2018-11-13T11:16:01.603Z,84.32
2018-11-13T11:18:29.050Z,84.16
2018-11-13T11:20:56.510Z,84.06
2018-11-13T11:23:24.001Z,84.83
2018-11-13T11:25:51.320Z,84.33
2018-11-13T11:28:19.253Z,84.12
2018-11-13T11:30:46.813Z,84.16
2018-11-13T11:33:14.279Z,84.69
2018-11-13T11:35:41.730Z,84.63
2018-11-13T11:38:09.133Z,85.57
2018-11-13T11:40:36.628Z,86.62
2018-11-13T11:43:04.040Z,86.51
2018-11-13T11:45:31.460Z,86.22
2018-11-13T11:47:58.969Z,85.74
2018-11-13T11:50:26.400Z,84.97
2018-11-13T11:52:53.812Z,85.70
2018-11-13T11:55:21.229Z,84.94
2018-11-13T11:57:48.699Z,84.96
2018-11-13T12:00:19.588Z,84.81
2018-11-13T12:02:47.405Z,84.28
2018-11-13T12:05:14.852Z,84.25
2018-11-13T12:07:42.302Z,84.96
2018-11-13T12:10:11.168Z,85.15
2018-11-13T12:12:38.717Z,84.90
2018-11-13T12:15:06.068Z,85.26
2018-11-13T12:17:33.480Z,85.24
2018-11-13T12:20:01.358Z,85.36
2018-11-13T12:22:28.813Z,85.61
2018-11-13T12:24:56.236Z,85.38
2018-11-13T12:27:23.631Z,85.87
2018-11-13T12:29:51.215Z,85.65
2018-11-13T12:32:18.621Z,85.48
2018-11-13T12:34:46.198Z,85.55
2018-11-13T12:37:13.867Z,85.80
2018-11-13T12:39:41.304Z,85.49
2018-11-13T12:42:08.755Z,85.88
2018-11-13T12:44:36.160Z,85.20
2018-11-13T12:47:03.848Z,84.89
2018-11-13T12:49:31.419Z,84.92
2018-11-13T12:52:04.400Z,85.54
2018-11-13T12:54:31.816Z,85.69
2018-11-13T12:56:59.224Z,86.76
2018-11-13T12:59:26.640Z,86.92
2018-11-13T13:01:54.233Z,86.84
2018-11-13T13:04:21.598Z,86.23
2018-11-13T13:06:49.071Z,86.12
2018-11-13T13:09:16.476Z,86.14
2018-11-13T13:11:43.893Z,86.78
2018-11-13T13:14:15.506Z,86.48
2018-11-13T13:16:42.996Z,86.99
2018-11-13T13:19:10.416Z,86.53
2018-11-13T13:21:38.032Z,86.82
2018-11-13T13:24:06.056Z,87.66
2018-11-13T13:26:33.521Z,87.38
2018-11-13T13:29:00.964Z,87.03
2018-11-13T13:31:28.382Z,87.19
2018-11-13T13:33:55.817Z,87.82
2018-11-13T13:36:23.228Z,87.42
2018-11-13T13:38:51.085Z,86.81
2018-11-13T13:41:18.393Z,84.46
2018-11-13T13:43:45.792Z,83.21
2018-11-13T13:46:13.192Z,82.20
2018-11-13T13:48:41.593Z,81.95
2018-11-13T13:51:09.138Z,81.76
2018-11-13T13:53:36.691Z,81.59
2018-11-13T13:56:04.052Z,82.22
2018-11-13T13:58:31.524Z,82.26
2018-11-13T14:00:59.079Z,82.20
2018-11-13T14:03:26.368Z,82.84
2018-11-13T14:05:53.891Z,83.59
2018-11-13T14:08:21.452Z,85.07
2018-11-13T14:10:49.612Z,84.26
2018-11-13T14:13:17.198Z,83.94
2018-11-13T14:15:44.600Z,84.39
2018-11-13T14:18:12.756Z,84.50
2018-11-13T14:20:40.158Z,85.50
2018-11-13T14:23:07.576Z,85.49
2018-11-13T14:25:35.089Z,85.69
2018-11-13T14:28:02.485Z,86.33
2018-11-13T14:30:31.572Z,86.55
2018-11-13T14:33:01.222Z,86.92
2018-11-13T14:35:28.740Z,86.85
2018-11-13T14:37:56.033Z,87.12
2018-11-13T14:40:24.812Z,87.62
2018-11-13T14:42:52.301Z,87.29
2018-11-13T14:45:20.764Z,87.15
2018-11-13T14:47:48.920Z,87.37
2018-11-13T14:50:16.787Z,87.32
2018-11-13T14:52:44.608Z,87.22
2018-11-13T14:55:13.593Z,87.08
2018-11-13T14:57:41.215Z,86.98
2018-11-13T15:00:08.624Z,86.71
2018-11-13T15:02:36.029Z,87.15
2018-11-13T15:05:03.421Z,87.65
2018-11-13T15:07:30.924Z,87.42
2018-11-13T15:09:58.320Z,87.94
2018-11-13T15:12:25.736Z,87.16
2018-11-13T15:14:53.124Z,87.03
2018-11-13T15:17:20.526Z,86.80
2018-11-13T15:19:47.942Z,86.92
2018-11-13T15:22:15.452Z,86.88
2018-11-13T15:24:42.849Z,87.28
2018-11-13T15:27:10.255Z,87.65
2018-11-13T15:29:37.664Z,87.55
2018-11-13T15:32:05.068Z,87.63
2018-11-13T15:34:32.461Z,87.04
2018-11-13T15:36:59.878Z,86.09
2018-11-13T15:39:27.309Z,86.73
2018-11-13T15:41:54.722Z,86.90
2018-11-13T15:44:22.132Z,85.81
2018-11-13T15:46:49.521Z,85.61
2018-11-13T15:49:16.925Z,85.27
2018-11-13T15:51:44.454Z,85.66
2018-11-13T15:54:11.736Z,85.36
2018-11-13T15:56:39.170Z,85.20
2018-11-13T15:59:06.589Z,85.60
2018-11-13T16:01:34.001Z,85.67
2018-11-13T16:04:01.425Z,85.84
2018-11-13T16:06:29.013Z,84.34
2018-11-13T16:08:56.236Z,85.09
2018-11-13T16:11:23.638Z,83.06
2018-11-13T16:13:51.040Z,84.15
2018-11-13T16:16:18.432Z,85.36
2018-11-13T16:18:45.837Z,84.62
2018-11-13T16:21:13.265Z,84.64
2018-11-13T16:23:40.652Z,84.48
2018-11-13T16:26:08.065Z,84.95
2018-11-13T16:28:35.489Z,85.21
2018-11-13T16:31:02.902Z,84.73
2018-11-13T16:33:30.310Z,83.72
2018-11-13T16:35:57.710Z,83.17
2018-11-13T16:38:25.166Z,83.35
2018-11-13T16:40:52.527Z,84.17
2018-11-13T16:43:19.955Z,84.90
2018-11-13T16:45:47.337Z,85.14
2018-11-13T16:48:14.782Z,85.17
2018-11-13T16:50:42.746Z,85.37
2018-11-13T16:53:10.144Z,86.02
2018-11-13T16:55:42.949Z,86.37
2018-11-13T16:58:11.955Z,86.46
2018-11-13T17:00:39.501Z,86.85
2018-11-13T17:03:06.778Z,86.81
2018-11-13T17:05:34.301Z,87.08
2018-11-13T17:08:01.660Z,86.96
2018-11-13T17:10:31.089Z,86.07
2018-11-13T17:12:59.164Z,85.35
2018-11-13T17:15:27.855Z,85.46
2018-11-13T17:17:56.340Z,85.91
2018-11-13T17:20:23.750Z,84.47
2018-11-13T17:22:51.669Z,81.44
2018-11-13T17:25:20.452Z,82.38
2018-11-13T17:27:48.929Z,81.81
2018-11-13T17:30:19.254Z,82.21
2018-11-13T17:32:45.583Z,82.10
2018-11-13T17:35:14.276Z,82.39
2018-11-13T17:37:41.868Z,81.53
2018-11-13T17:40:09.497Z,81.48
2018-11-13T17:42:36.886Z,81.38
2018-11-13T17:45:04.292Z,81.31
2018-11-13T17:47:31.692Z,79.62
2018-11-13T17:49:59.097Z,80.23
2018-11-13T17:52:26.498Z,80.41
2018-11-13T17:54:53.897Z,79.33
2018-11-13T17:57:21.306Z,79.65
2018-11-13T17:59:48.713Z,79.32
2018-11-13T18:02:16.112Z,78.71
2018-11-13T18:04:43.520Z,80.11
2018-11-13T18:07:10.913Z,80.22
2018-11-13T18:09:38.313Z,79.34
2018-11-13T18:12:05.758Z,78.14
2018-11-13T18:14:33.245Z,78.10
2018-11-13T18:17:00.630Z,77.69
2018-11-13T18:19:28.037Z,78.11
2018-11-13T18:21:55.581Z,79.21
2018-11-13T18:24:22.855Z,78.53
2018-11-13T18:26:50.245Z,78.56
2018-11-13T18:29:17.714Z,78.69
2018-11-13T18:31:45.134Z,77.95
2018-11-13T18:34:12.547Z,78.52
2018-11-13T18:36:40.814Z,76.83
2018-11-13T18:39:08.855Z,76.65
2018-11-13T18:41:35.999Z,76.84
2018-11-13T18:44:03.604Z,75.73
2018-11-13T18:46:31.016Z,76.45
2018-11-13T18:48:58.441Z,77.70
2018-11-13T18:51:25.859Z,75.81
2018-11-13T18:53:53.314Z,75.52
2018-11-13T18:56:20.688Z,75.43
2018-11-13T18:58:48.111Z,75.40
2018-11-13T19:01:15.497Z,73.56
2018-11-13T19:03:42.914Z,74.73
2018-11-13T19:06:10.332Z,74.55
2018-11-13T19:08:37.739Z,75.88
2018-11-13T19:11:05.280Z,76.11
2018-11-13T19:13:32.564Z,77.44
2018-11-13T19:15:59.995Z,79.25
2018-11-13T19:18:27.421Z,79.68
2018-11-13T19:20:54.834Z,78.77
2018-11-13T19:23:22.513Z,79.12
2018-11-13T19:25:49.912Z,78.52
2018-11-13T19:28:17.324Z,79.02
2018-11-13T19:30:44.933Z,76.71
2018-11-13T19:33:12.324Z,76.07
2018-11-13T19:35:39.917Z,75.99
2018-11-13T19:38:07.165Z,76.38
2018-11-13T19:40:35.226Z,76.03
2018-11-13T19:43:04.139Z,76.15
2018-11-13T19:45:31.548Z,76.19
2018-11-13T19:47:58.965Z,75.43
2018-11-13T19:50:27.821Z,75.63
2018-11-13T19:52:55.085Z,75.94
2018-11-13T19:55:23.164Z,74.12
2018-11-13T19:57:50.631Z,75.01
2018-11-13T20:00:24.304Z,75.51
2018-11-13T20:02:53.346Z,76.18
2018-11-13T20:05:21.096Z,76.51
2018-11-13T20:07:48.496Z,75.52
2018-11-13T20:10:18.389Z,76.14
2018-11-13T20:12:46.816Z,77.07
2018-11-13T20:15:14.248Z,76.49
2018-11-13T20:17:41.661Z,77.26
2018-11-13T20:20:09.139Z,77.65
2018-11-13T20:22:36.577Z,76.47
2018-11-13T20:25:04.000Z,76.00
2018-11-13T20:27:31.397Z,74.33
2018-11-13T20:29:58.855Z,75.48
2018-11-13T20:32:26.253Z,75.96
2018-11-13T20:34:53.668Z,76.67
2018-11-13T20:37:21.070Z,77.08
2018-11-13T20:39:48.452Z,77.45
2018-11-13T20:42:15.870Z,77.31
2018-11-13T20:44:43.308Z,77.60
2018-11-13T20:47:10.668Z,77.33
2018-11-13T20:49:38.086Z,78.08
2018-11-13T20:52:05.484Z,78.32
2018-11-13T20:54:32.895Z,78.98
2018-11-13T20:57:00.302Z,78.59
2018-11-13T20:59:27.730Z,78.79
2018-11-13T21:01:55.181Z,79.68
2018-11-13T21:04:22.546Z,80.16
2018-11-13T21:06:49.939Z,79.98
2018-11-13T21:09:17.338Z,80.21
2018-11-13T21:11:44.828Z,80.88
2018-11-13T21:14:12.300Z,80.95
2018-11-13T21:16:39.767Z,80.51
2018-11-13T21:19:07.093Z,80.18
2018-11-13T21:21:34.489Z,79.61
2018-11-13T21:24:01.920Z,80.70
2018-11-13T21:26:29.294Z,81.34
2018-11-13T21:28:56.699Z,81.55
2018-11-13T21:31:24.100Z,82.02
2018-11-13T21:33:51.517Z,81.46
2018-11-13T21:36:18.981Z,82.18
2018-11-13T21:38:46.380Z,82.68
2018-11-13T21:41:13.780Z,82.86
2018-11-13T21:43:41.230Z,82.77
2018-11-13T21:46:08.593Z,83.08
2018-11-13T21:48:36.003Z,83.77
2018-11-13T21:51:03.449Z,83.31
2018-11-13T21:53:30.864Z,83.30
2018-11-13T21:55:58.259Z,82.81
2018-11-13T21:58:25.652Z,83.17
2018-11-13T22:00:53.048Z,83.35
2018-11-13T22:03:20.450Z,83.39
2018-11-13T22:05:47.873Z,83.18
2018-11-13T22:08:15.407Z,83.26
2018-11-13T22:10:42.772Z,83.35
2018-11-13T22:13:10.256Z,83.85
2018-11-13T22:15:37.669Z,83.76
2018-11-13T22:18:05.073Z,82.79
2018-11-13T22:20:32.472Z,82.87
2018-11-13T22:22:59.868Z,83.29
2018-11-13T22:25:27.494Z,83.03
2018-11-13T22:27:56.331Z,82.87
2018-11-13T22:30:24.854Z,82.43
2018-11-13T22:32:52.309Z,82.31
2018-11-13T22:35:20.666Z,82.00
2018-11-13T22:37:47.980Z,81.79
2018-11-13T22:40:17.453Z,81.30
2018-11-13T22:42:44.953Z,81.55
2018-11-13T22:45:14.826Z,81.87
2018-11-13T22:47:42.331Z,81.98
2018-11-13T22:50:09.752Z,82.31
2018-11-13T22:52:37.181Z,81.87
2018-11-13T22:55:04.576Z,82.25
2018-11-13T22:57:31.981Z,81.97
2018-11-13T22:59:59.460Z,82.28
2018-11-13T23:02:27.035Z,81.74
2018-11-13T23:04:54.216Z,81.83
2018-11-13T23:07:21.697Z,81.56
2018-11-13T23:09:49.113Z,82.03
2018-11-13T23:12:16.498Z,82.14
2018-11-13T23:14:43.896Z,82.16
2018-11-13T23:17:11.322Z,81.76
2018-11-13T23:19:38.712Z,81.26
2018-11-13T23:22:06.121Z,81.94
2018-11-13T23:24:33.517Z,79.91
2018-11-13T23:27:00.925Z,79.94
2018-11-13T23:29:28.343Z,78.76
2018-11-13T23:31:55.756Z,78.45
2018-11-13T23:34:23.158Z,78.68
2018-11-13T23:36:50.560Z,78.73
2018-11-13T23:39:17.956Z,78.72
2018-11-13T23:41:45.351Z,79.24
2018-11-13T23:44:12.805Z,79.22
2018-11-13T23:46:40.233Z,79.53
2018-11-13T23:49:07.648Z,79.13
2018-11-13T23:51:35.057Z,79.34
2018-11-13T23:54:02.481Z,79.84
2018-11-13T23:56:29.936Z,80.14
2018-11-13T23:58:57.289Z,77.91
